sensor_id;sensor_type;location;lat;lon;timestamp;P1;durP1;ratioP1;P2;durP2;ratioP2
16660;SDS011;8444;52.012;5.048;2023-03-09T00:01:28;26.27;;;14.30;;
16660;SDS011;8444;52.012;5.048;2023-03-09T00:03:54;28.63;;;14.43;;
16660;SDS011;8444;52.012;5.048;2023-03-09T00:06:19;26.63;;;13.37;;
16660;SDS011;8444;52.012;5.048;2023-03-09T00:08:44;25.37;;;13.40;;
16660;SDS011;8444;52.012;5.048;2023-03-09T00:11:10;28.90;;;13.83;;
16660;SDS011;8444;52.012;5.048;2023-03-09T00:13:35;25.03;;;14.33;;
16660;SDS011;8444;52.012;5.048;2023-03-09T00:16:08;31.53;;;14.80;;
16660;SDS011;8444;52.012;5.048;2023-03-09T00:18:33;24.40;;;13.33;;
16660;SDS011;8444;52.012;5.048;2023-03-09T00:20:58;28.03;;;13.93;;
16660;SDS011;8444;52.012;5.048;2023-03-09T00:23:24;26.37;;;13.90;;
16660;SDS011;8444;52.012;5.048;2023-03-09T00:25:49;26.80;;;13.90;;
16660;SDS011;8444;52.012;5.048;2023-03-09T00:28:14;28.27;;;14.60;;
16660;SDS011;8444;52.012;5.048;2023-03-09T00:30:39;28.53;;;15.50;;
16660;SDS011;8444;52.012;5.048;2023-03-09T00:33:04;26.20;;;14.17;;
16660;SDS011;8444;52.012;5.048;2023-03-09T00:35:29;29.13;;;14.47;;
16660;SDS011;8444;52.012;5.048;2023-03-09T00:37:55;26.17;;;14.13;;
16660;SDS011;8444;52.012;5.048;2023-03-09T00:40:20;29.33;;;16.33;;
16660;SDS011;8444;52.012;5.048;2023-03-09T00:42:45;27.00;;;14.57;;
16660;SDS011;8444;52.012;5.048;2023-03-09T00:45:10;27.40;;;14.57;;
16660;SDS011;8444;52.012;5.048;2023-03-09T00:47:36;26.10;;;13.70;;
16660;SDS011;8444;52.012;5.048;2023-03-09T00:50:01;27.17;;;14.07;;
16660;SDS011;8444;52.012;5.048;2023-03-09T00:52:27;30.03;;;15.33;;
16660;SDS011;8444;52.012;5.048;2023-03-09T00:54:52;26.70;;;14.73;;
16660;SDS011;8444;52.012;5.048;2023-03-09T00:57:21;29.50;;;15.10;;
16660;SDS011;8444;52.012;5.048;2023-03-09T00:59:47;25.47;;;14.77;;
16660;SDS011;8444;52.012;5.048;2023-03-09T01:02:12;26.77;;;14.70;;
16660;SDS011;8444;52.012;5.048;2023-03-09T01:04:37;29.03;;;14.83;;
16660;SDS011;8444;52.012;5.048;2023-03-09T01:07:03;32.17;;;14.83;;
16660;SDS011;8444;52.012;5.048;2023-03-09T01:09:28;26.50;;;13.17;;
16660;SDS011;8444;52.012;5.048;2023-03-09T01:11:54;26.57;;;14.00;;
16660;SDS011;8444;52.012;5.048;2023-03-09T01:14:19;29.83;;;14.83;;
16660;SDS011;8444;52.012;5.048;2023-03-09T01:16:45;28.07;;;14.53;;
16660;SDS011;8444;52.012;5.048;2023-03-09T01:19:10;27.70;;;14.13;;
16660;SDS011;8444;52.012;5.048;2023-03-09T01:21:35;25.03;;;13.97;;
16660;SDS011;8444;52.012;5.048;2023-03-09T01:24:00;24.13;;;12.97;;
16660;SDS011;8444;52.012;5.048;2023-03-09T01:26:25;28.47;;;15.23;;
16660;SDS011;8444;52.012;5.048;2023-03-09T01:28:51;22.73;;;12.87;;
16660;SDS011;8444;52.012;5.048;2023-03-09T01:31:16;22.03;;;12.10;;
16660;SDS011;8444;52.012;5.048;2023-03-09T01:33:41;23.40;;;13.27;;
16660;SDS011;8444;52.012;5.048;2023-03-09T01:36:10;29.33;;;14.37;;
16660;SDS011;8444;52.012;5.048;2023-03-09T01:38:36;21.13;;;12.33;;
16660;SDS011;8444;52.012;5.048;2023-03-09T01:41:01;23.50;;;12.43;;
16660;SDS011;8444;52.012;5.048;2023-03-09T01:43:39;26.03;;;14.27;;
16660;SDS011;8444;52.012;5.048;2023-03-09T01:51:18;24.87;;;12.57;;
16660;SDS011;8444;52.012;5.048;2023-03-09T01:53:43;28.23;;;13.43;;
16660;SDS011;8444;52.012;5.048;2023-03-09T01:56:08;20.40;;;12.27;;
16660;SDS011;8444;52.012;5.048;2023-03-09T01:58:34;27.00;;;14.20;;
16660;SDS011;8444;52.012;5.048;2023-03-09T02:00:59;24.43;;;12.73;;
16660;SDS011;8444;52.012;5.048;2023-03-09T02:03:26;21.37;;;11.83;;
16660;SDS011;8444;52.012;5.048;2023-03-09T02:08:17;19.50;;;11.60;;
16660;SDS011;8444;52.012;5.048;2023-03-09T02:11:05;25.33;;;12.93;;
16660;SDS011;8444;52.012;5.048;2023-03-09T02:13:29;21.47;;;11.63;;
16660;SDS011;8444;52.012;5.048;2023-03-09T02:15:55;22.20;;;12.63;;
16660;SDS011;8444;52.012;5.048;2023-03-09T02:18:20;22.93;;;12.07;;
16660;SDS011;8444;52.012;5.048;2023-03-09T02:23:31;19.07;;;11.63;;
16660;SDS011;8444;52.012;5.048;2023-03-09T02:26:04;22.23;;;11.67;;
16660;SDS011;8444;52.012;5.048;2023-03-09T02:28:32;20.23;;;11.60;;
16660;SDS011;8444;52.012;5.048;2023-03-09T02:30:58;22.07;;;11.63;;
16660;SDS011;8444;52.012;5.048;2023-03-09T02:33:25;18.07;;;11.47;;
16660;SDS011;8444;52.012;5.048;2023-03-09T02:35:52;20.60;;;11.27;;
16660;SDS011;8444;52.012;5.048;2023-03-09T02:38:17;22.80;;;11.47;;
16660;SDS011;8444;52.012;5.048;2023-03-09T02:40:43;19.97;;;11.83;;
16660;SDS011;8444;52.012;5.048;2023-03-09T02:43:09;20.17;;;11.37;;
16660;SDS011;8444;52.012;5.048;2023-03-09T02:45:34;22.03;;;11.67;;
16660;SDS011;8444;52.012;5.048;2023-03-09T02:47:59;18.33;;;10.40;;
16660;SDS011;8444;52.012;5.048;2023-03-09T02:50:25;18.83;;;10.53;;
16660;SDS011;8444;52.012;5.048;2023-03-09T02:52:50;17.03;;;10.07;;
16660;SDS011;8444;52.012;5.048;2023-03-09T02:55:16;18.97;;;10.37;;
16660;SDS011;8444;52.012;5.048;2023-03-09T02:57:41;20.97;;;12.27;;
16660;SDS011;8444;52.012;5.048;2023-03-09T03:00:08;19.20;;;10.63;;
16660;SDS011;8444;52.012;5.048;2023-03-09T03:02:34;21.93;;;11.30;;
16660;SDS011;8444;52.012;5.048;2023-03-09T03:04:59;19.00;;;10.97;;
16660;SDS011;8444;52.012;5.048;2023-03-09T03:07:25;21.00;;;12.80;;
16660;SDS011;8444;52.012;5.048;2023-03-09T03:09:50;19.83;;;11.47;;
16660;SDS011;8444;52.012;5.048;2023-03-09T03:12:15;19.00;;;11.63;;
16660;SDS011;8444;52.012;5.048;2023-03-09T03:14:41;24.00;;;13.67;;
16660;SDS011;8444;52.012;5.048;2023-03-09T03:17:06;20.63;;;11.57;;
16660;SDS011;8444;52.012;5.048;2023-03-09T03:19:31;22.13;;;12.50;;
16660;SDS011;8444;52.012;5.048;2023-03-09T03:21:57;24.23;;;11.70;;
16660;SDS011;8444;52.012;5.048;2023-03-09T03:24:22;22.57;;;11.93;;
16660;SDS011;8444;52.012;5.048;2023-03-09T03:26:48;20.70;;;10.87;;
16660;SDS011;8444;52.012;5.048;2023-03-09T03:29:13;19.97;;;11.57;;
16660;SDS011;8444;52.012;5.048;2023-03-09T03:31:38;22.07;;;12.07;;
16660;SDS011;8444;52.012;5.048;2023-03-09T03:34:03;21.77;;;11.97;;
16660;SDS011;8444;52.012;5.048;2023-03-09T03:36:28;25.53;;;12.20;;
16660;SDS011;8444;52.012;5.048;2023-03-09T03:38:54;22.87;;;13.53;;
16660;SDS011;8444;52.012;5.048;2023-03-09T03:41:19;21.93;;;12.23;;
16660;SDS011;8444;52.012;5.048;2023-03-09T03:43:44;20.27;;;11.33;;
16660;SDS011;8444;52.012;5.048;2023-03-09T03:46:09;21.47;;;12.00;;
16660;SDS011;8444;52.012;5.048;2023-03-09T03:48:34;23.13;;;13.07;;
16660;SDS011;8444;52.012;5.048;2023-03-09T03:51:00;27.27;;;14.10;;
16660;SDS011;8444;52.012;5.048;2023-03-09T03:53:25;23.13;;;12.33;;
16660;SDS011;8444;52.012;5.048;2023-03-09T03:55:50;23.40;;;12.67;;
16660;SDS011;8444;52.012;5.048;2023-03-09T03:58:15;20.13;;;12.83;;
16660;SDS011;8444;52.012;5.048;2023-03-09T04:00:41;23.13;;;12.33;;
16660;SDS011;8444;52.012;5.048;2023-03-09T04:03:06;21.67;;;12.23;;
16660;SDS011;8444;52.012;5.048;2023-03-09T04:05:31;23.07;;;12.97;;
16660;SDS011;8444;52.012;5.048;2023-03-09T04:07:57;22.90;;;11.23;;
16660;SDS011;8444;52.012;5.048;2023-03-09T04:10:22;22.90;;;12.90;;
16660;SDS011;8444;52.012;5.048;2023-03-09T04:12:48;22.63;;;13.00;;
16660;SDS011;8444;52.012;5.048;2023-03-09T04:15:14;20.80;;;11.67;;
16660;SDS011;8444;52.012;5.048;2023-03-09T04:17:39;24.30;;;12.73;;
16660;SDS011;8444;52.012;5.048;2023-03-09T04:20:04;21.93;;;12.37;;
16660;SDS011;8444;52.012;5.048;2023-03-09T04:22:30;25.17;;;13.20;;
16660;SDS011;8444;52.012;5.048;2023-03-09T04:24:55;23.00;;;12.00;;
16660;SDS011;8444;52.012;5.048;2023-03-09T04:27:20;23.60;;;13.13;;
16660;SDS011;8444;52.012;5.048;2023-03-09T04:29:46;19.13;;;11.80;;
16660;SDS011;8444;52.012;5.048;2023-03-09T04:32:11;23.23;;;12.40;;
16660;SDS011;8444;52.012;5.048;2023-03-09T04:34:36;23.33;;;12.73;;
16660;SDS011;8444;52.012;5.048;2023-03-09T04:37:01;19.53;;;11.53;;
16660;SDS011;8444;52.012;5.048;2023-03-09T04:39:27;21.10;;;12.07;;
16660;SDS011;8444;52.012;5.048;2023-03-09T04:41:52;20.30;;;12.10;;
16660;SDS011;8444;52.012;5.048;2023-03-09T04:44:17;23.10;;;12.57;;
16660;SDS011;8444;52.012;5.048;2023-03-09T04:46:42;21.53;;;11.13;;
16660;SDS011;8444;52.012;5.048;2023-03-09T04:49:07;25.20;;;12.93;;
16660;SDS011;8444;52.012;5.048;2023-03-09T04:51:33;18.83;;;10.93;;
16660;SDS011;8444;52.012;5.048;2023-03-09T04:53:58;20.37;;;11.73;;
16660;SDS011;8444;52.012;5.048;2023-03-09T04:56:23;19.57;;;12.40;;
16660;SDS011;8444;52.012;5.048;2023-03-09T04:58:48;22.47;;;12.33;;
16660;SDS011;8444;52.012;5.048;2023-03-09T05:01:14;24.20;;;11.87;;
16660;SDS011;8444;52.012;5.048;2023-03-09T05:03:39;22.80;;;11.80;;
16660;SDS011;8444;52.012;5.048;2023-03-09T05:06:04;23.83;;;12.33;;
16660;SDS011;8444;52.012;5.048;2023-03-09T05:08:30;18.77;;;11.43;;
16660;SDS011;8444;52.012;5.048;2023-03-09T05:10:55;23.53;;;12.43;;
16660;SDS011;8444;52.012;5.048;2023-03-09T05:13:20;19.30;;;11.13;;
16660;SDS011;8444;52.012;5.048;2023-03-09T05:15:45;24.43;;;12.07;;
16660;SDS011;8444;52.012;5.048;2023-03-09T05:18:10;21.93;;;12.73;;
16660;SDS011;8444;52.012;5.048;2023-03-09T05:20:36;23.33;;;12.80;;
16660;SDS011;8444;52.012;5.048;2023-03-09T05:23:02;23.60;;;12.07;;
16660;SDS011;8444;52.012;5.048;2023-03-09T05:25:27;20.00;;;11.60;;
16660;SDS011;8444;52.012;5.048;2023-03-09T05:27:53;24.10;;;12.13;;
16660;SDS011;8444;52.012;5.048;2023-03-09T05:30:18;21.70;;;12.57;;
16660;SDS011;8444;52.012;5.048;2023-03-09T05:32:44;25.23;;;12.87;;
16660;SDS011;8444;52.012;5.048;2023-03-09T05:35:09;23.80;;;13.27;;
16660;SDS011;8444;52.012;5.048;2023-03-09T05:37:34;22.73;;;12.77;;
16660;SDS011;8444;52.012;5.048;2023-03-09T05:40:00;25.90;;;12.60;;
16660;SDS011;8444;52.012;5.048;2023-03-09T05:42:25;24.87;;;13.53;;
16660;SDS011;8444;52.012;5.048;2023-03-09T05:44:50;24.27;;;12.90;;
16660;SDS011;8444;52.012;5.048;2023-03-09T05:47:15;28.23;;;12.53;;
16660;SDS011;8444;52.012;5.048;2023-03-09T05:49:41;25.50;;;13.63;;
16660;SDS011;8444;52.012;5.048;2023-03-09T05:52:06;25.83;;;13.07;;
16660;SDS011;8444;52.012;5.048;2023-03-09T05:54:31;25.17;;;13.73;;
16660;SDS011;8444;52.012;5.048;2023-03-09T05:56:56;21.63;;;12.23;;
16660;SDS011;8444;52.012;5.048;2023-03-09T05:59:22;23.03;;;12.50;;
16660;SDS011;8444;52.012;5.048;2023-03-09T06:01:47;23.63;;;12.83;;
16660;SDS011;8444;52.012;5.048;2023-03-09T06:04:12;26.03;;;12.57;;
16660;SDS011;8444;52.012;5.048;2023-03-09T06:06:37;23.00;;;11.97;;
16660;SDS011;8444;52.012;5.048;2023-03-09T06:09:03;23.53;;;12.57;;
16660;SDS011;8444;52.012;5.048;2023-03-09T06:11:28;22.73;;;12.53;;
16660;SDS011;8444;52.012;5.048;2023-03-09T06:13:53;23.03;;;11.97;;
16660;SDS011;8444;52.012;5.048;2023-03-09T06:16:19;21.57;;;13.47;;
16660;SDS011;8444;52.012;5.048;2023-03-09T06:18:44;25.77;;;13.40;;
16660;SDS011;8444;52.012;5.048;2023-03-09T06:21:09;27.03;;;14.03;;
16660;SDS011;8444;52.012;5.048;2023-03-09T06:23:35;23.73;;;13.07;;
16660;SDS011;8444;52.012;5.048;2023-03-09T06:26:04;24.17;;;12.70;;
16660;SDS011;8444;52.012;5.048;2023-03-09T06:28:30;26.90;;;13.37;;
16660;SDS011;8444;52.012;5.048;2023-03-09T06:30:55;26.00;;;13.57;;
16660;SDS011;8444;52.012;5.048;2023-03-09T06:33:20;27.47;;;13.67;;
16660;SDS011;8444;52.012;5.048;2023-03-09T06:35:45;20.70;;;12.13;;
16660;SDS011;8444;52.012;5.048;2023-03-09T06:38:11;27.13;;;15.43;;
16660;SDS011;8444;52.012;5.048;2023-03-09T06:40:36;23.63;;;12.73;;
16660;SDS011;8444;52.012;5.048;2023-03-09T06:43:01;23.03;;;13.03;;
16660;SDS011;8444;52.012;5.048;2023-03-09T06:45:27;25.23;;;13.83;;
16660;SDS011;8444;52.012;5.048;2023-03-09T06:47:53;25.17;;;13.57;;
16660;SDS011;8444;52.012;5.048;2023-03-09T06:50:19;24.30;;;12.77;;
16660;SDS011;8444;52.012;5.048;2023-03-09T06:52:44;21.47;;;12.17;;
16660;SDS011;8444;52.012;5.048;2023-03-09T06:55:09;23.87;;;13.37;;
16660;SDS011;8444;52.012;5.048;2023-03-09T06:57:36;22.93;;;12.23;;
16660;SDS011;8444;52.012;5.048;2023-03-09T07:00:01;26.33;;;15.40;;
16660;SDS011;8444;52.012;5.048;2023-03-09T07:02:26;25.27;;;14.40;;
16660;SDS011;8444;52.012;5.048;2023-03-09T07:04:51;26.07;;;13.13;;
16660;SDS011;8444;52.012;5.048;2023-03-09T07:07:16;24.43;;;14.23;;
16660;SDS011;8444;52.012;5.048;2023-03-09T07:09:43;29.27;;;15.37;;
16660;SDS011;8444;52.012;5.048;2023-03-09T07:12:08;29.77;;;16.47;;
16660;SDS011;8444;52.012;5.048;2023-03-09T07:14:34;33.93;;;18.40;;
16660;SDS011;8444;52.012;5.048;2023-03-09T07:16:59;34.30;;;17.57;;
16660;SDS011;8444;52.012;5.048;2023-03-09T07:19:25;29.23;;;15.80;;
16660;SDS011;8444;52.012;5.048;2023-03-09T07:21:50;28.80;;;15.43;;
16660;SDS011;8444;52.012;5.048;2023-03-09T07:24:17;26.03;;;14.33;;
16660;SDS011;8444;52.012;5.048;2023-03-09T07:26:42;31.33;;;16.70;;
16660;SDS011;8444;52.012;5.048;2023-03-09T07:29:08;28.67;;;15.63;;
16660;SDS011;8444;52.012;5.048;2023-03-09T07:31:33;26.00;;;15.03;;
16660;SDS011;8444;52.012;5.048;2023-03-09T07:33:58;27.07;;;13.80;;
16660;SDS011;8444;52.012;5.048;2023-03-09T07:36:23;21.90;;;12.40;;
16660;SDS011;8444;52.012;5.048;2023-03-09T07:38:49;23.80;;;13.53;;
16660;SDS011;8444;52.012;5.048;2023-03-09T07:41:15;24.63;;;13.50;;
16660;SDS011;8444;52.012;5.048;2023-03-09T07:43:40;23.97;;;13.67;;
16660;SDS011;8444;52.012;5.048;2023-03-09T07:46:15;22.87;;;13.20;;
16660;SDS011;8444;52.012;5.048;2023-03-09T07:48:41;22.23;;;13.07;;
16660;SDS011;8444;52.012;5.048;2023-03-09T07:51:07;24.43;;;12.70;;
16660;SDS011;8444;52.012;5.048;2023-03-09T07:53:33;23.57;;;13.73;;
16660;SDS011;8444;52.012;5.048;2023-03-09T07:55:59;23.90;;;13.30;;
16660;SDS011;8444;52.012;5.048;2023-03-09T07:58:28;23.40;;;13.50;;
16660;SDS011;8444;52.012;5.048;2023-03-09T08:00:53;21.33;;;12.30;;
16660;SDS011;8444;52.012;5.048;2023-03-09T08:03:18;25.70;;;13.17;;
16660;SDS011;8444;52.012;5.048;2023-03-09T08:05:44;25.03;;;13.60;;
16660;SDS011;8444;52.012;5.048;2023-03-09T08:08:09;24.67;;;13.90;;
16660;SDS011;8444;52.012;5.048;2023-03-09T08:10:36;23.80;;;13.57;;
16660;SDS011;8444;52.012;5.048;2023-03-09T08:13:01;22.37;;;12.60;;
16660;SDS011;8444;52.012;5.048;2023-03-09T08:15:26;20.73;;;12.50;;
16660;SDS011;8444;52.012;5.048;2023-03-09T08:17:52;25.37;;;13.63;;
16660;SDS011;8444;52.012;5.048;2023-03-09T08:20:17;22.13;;;13.57;;
16660;SDS011;8444;52.012;5.048;2023-03-09T08:22:43;25.73;;;13.50;;
16660;SDS011;8444;52.012;5.048;2023-03-09T08:25:08;18.53;;;11.60;;
16660;SDS011;8444;52.012;5.048;2023-03-09T08:27:37;19.00;;;11.73;;
16660;SDS011;8444;52.012;5.048;2023-03-09T08:30:02;18.73;;;11.57;;
16660;SDS011;8444;52.012;5.048;2023-03-09T08:32:28;19.53;;;12.40;;
16660;SDS011;8444;52.012;5.048;2023-03-09T08:34:55;22.27;;;12.70;;
16660;SDS011;8444;52.012;5.048;2023-03-09T08:37:20;21.63;;;12.03;;
16660;SDS011;8444;52.012;5.048;2023-03-09T08:39:45;20.63;;;12.23;;
16660;SDS011;8444;52.012;5.048;2023-03-09T08:42:11;19.87;;;12.23;;
16660;SDS011;8444;52.012;5.048;2023-03-09T08:44:36;21.07;;;12.47;;
16660;SDS011;8444;52.012;5.048;2023-03-09T08:47:01;19.03;;;12.03;;
16660;SDS011;8444;52.012;5.048;2023-03-09T08:49:27;19.97;;;11.80;;
16660;SDS011;8444;52.012;5.048;2023-03-09T08:51:52;22.40;;;13.57;;
16660;SDS011;8444;52.012;5.048;2023-03-09T08:54:17;20.70;;;12.50;;
16660;SDS011;8444;52.012;5.048;2023-03-09T08:56:43;18.77;;;11.67;;
16660;SDS011;8444;52.012;5.048;2023-03-09T08:59:08;21.07;;;13.00;;
16660;SDS011;8444;52.012;5.048;2023-03-09T09:01:34;23.20;;;13.40;;
16660;SDS011;8444;52.012;5.048;2023-03-09T09:03:59;20.77;;;12.67;;
16660;SDS011;8444;52.012;5.048;2023-03-09T09:06:24;21.47;;;13.33;;
16660;SDS011;8444;52.012;5.048;2023-03-09T09:08:49;19.60;;;12.57;;
16660;SDS011;8444;52.012;5.048;2023-03-09T09:11:15;20.73;;;12.53;;
16660;SDS011;8444;52.012;5.048;2023-03-09T09:13:41;21.17;;;12.80;;
16660;SDS011;8444;52.012;5.048;2023-03-09T09:16:07;22.27;;;13.27;;
16660;SDS011;8444;52.012;5.048;2023-03-09T09:18:32;18.70;;;11.63;;
16660;SDS011;8444;52.012;5.048;2023-03-09T09:20:58;21.03;;;13.10;;
16660;SDS011;8444;52.012;5.048;2023-03-09T09:23:24;23.40;;;13.17;;
16660;SDS011;8444;52.012;5.048;2023-03-09T09:25:53;20.67;;;13.27;;
16660;SDS011;8444;52.012;5.048;2023-03-09T09:28:19;21.53;;;12.60;;
16660;SDS011;8444;52.012;5.048;2023-03-09T09:30:44;21.87;;;12.27;;
16660;SDS011;8444;52.012;5.048;2023-03-09T09:33:09;21.03;;;13.73;;
16660;SDS011;8444;52.012;5.048;2023-03-09T09:35:36;21.43;;;12.83;;
16660;SDS011;8444;52.012;5.048;2023-03-09T09:38:01;22.77;;;12.77;;
16660;SDS011;8444;52.012;5.048;2023-03-09T09:40:27;21.07;;;13.07;;
16660;SDS011;8444;52.012;5.048;2023-03-09T09:42:53;21.93;;;13.37;;
16660;SDS011;8444;52.012;5.048;2023-03-09T09:45:26;18.97;;;11.80;;
16660;SDS011;8444;52.012;5.048;2023-03-09T09:47:53;20.53;;;12.00;;
16660;SDS011;8444;52.012;5.048;2023-03-09T09:50:28;23.37;;;13.40;;
16660;SDS011;8444;52.012;5.048;2023-03-09T09:53:06;22.47;;;12.93;;
16660;SDS011;8444;52.012;5.048;2023-03-09T09:55:37;22.53;;;12.87;;
16660;SDS011;8444;52.012;5.048;2023-03-09T09:58:04;20.67;;;13.10;;
16660;SDS011;8444;52.012;5.048;2023-03-09T10:00:40;21.60;;;12.93;;
16660;SDS011;8444;52.012;5.048;2023-03-09T10:03:17;21.70;;;13.10;;
16660;SDS011;8444;52.012;5.048;2023-03-09T10:05:46;21.83;;;12.97;;
16660;SDS011;8444;52.012;5.048;2023-03-09T10:10:59;19.83;;;13.23;;
16660;SDS011;8444;52.012;5.048;2023-03-09T10:13:31;20.47;;;12.90;;
16660;SDS011;8444;52.012;5.048;2023-03-09T10:15:58;20.97;;;12.90;;
16660;SDS011;8444;52.012;5.048;2023-03-09T10:18:29;20.97;;;13.27;;
16660;SDS011;8444;52.012;5.048;2023-03-09T10:20:55;20.67;;;13.67;;
16660;SDS011;8444;52.012;5.048;2023-03-09T10:25:45;22.27;;;11.97;;
16660;SDS011;8444;52.012;5.048;2023-03-09T10:28:16;21.23;;;12.60;;
16660;SDS011;8444;52.012;5.048;2023-03-09T10:30:50;24.47;;;13.47;;
16660;SDS011;8444;52.012;5.048;2023-03-09T10:36:00;21.53;;;12.57;;
16660;SDS011;8444;52.012;5.048;2023-03-09T10:38:28;19.47;;;12.33;;
16660;SDS011;8444;52.012;5.048;2023-03-09T10:40:55;22.13;;;11.60;;
16660;SDS011;8444;52.012;5.048;2023-03-09T10:45:55;20.73;;;11.80;;
16660;SDS011;8444;52.012;5.048;2023-03-09T10:48:29;21.17;;;12.80;;
16660;SDS011;8444;52.012;5.048;2023-03-09T10:51:01;20.50;;;12.57;;
16660;SDS011;8444;52.012;5.048;2023-03-09T10:55:52;22.03;;;12.63;;
16660;SDS011;8444;52.012;5.048;2023-03-09T10:58:19;21.10;;;12.63;;
16660;SDS011;8444;52.012;5.048;2023-03-09T11:00:50;20.83;;;12.70;;
16660;SDS011;8444;52.012;5.048;2023-03-09T11:03:22;24.50;;;13.80;;
16660;SDS011;8444;52.012;5.048;2023-03-09T11:05:48;22.10;;;12.43;;
16660;SDS011;8444;52.012;5.048;2023-03-09T11:08:26;20.30;;;12.27;;
16660;SDS011;8444;52.012;5.048;2023-03-09T11:11:01;20.27;;;12.50;;
16660;SDS011;8444;52.012;5.048;2023-03-09T11:13:27;23.07;;;13.03;;
16660;SDS011;8444;52.012;5.048;2023-03-09T11:19:04;20.47;;;12.33;;
16660;SDS011;8444;52.012;5.048;2023-03-09T11:21:29;19.77;;;12.43;;
16660;SDS011;8444;52.012;5.048;2023-03-09T11:23:54;22.43;;;12.93;;
16660;SDS011;8444;52.012;5.048;2023-03-09T11:26:34;21.60;;;12.53;;
16660;SDS011;8444;52.012;5.048;2023-03-09T11:31:37;23.17;;;13.93;;
16660;SDS011;8444;52.012;5.048;2023-03-09T11:34:05;22.73;;;12.73;;
16660;SDS011;8444;52.012;5.048;2023-03-09T11:36:41;22.50;;;12.43;;
16660;SDS011;8444;52.012;5.048;2023-03-09T11:42:09;24.30;;;14.40;;
16660;SDS011;8444;52.012;5.048;2023-03-09T11:44:36;22.90;;;12.57;;
16660;SDS011;8444;52.012;5.048;2023-03-09T11:47:03;22.77;;;13.10;;
16660;SDS011;8444;52.012;5.048;2023-03-09T11:49:29;23.50;;;13.13;;
16660;SDS011;8444;52.012;5.048;2023-03-09T11:51:55;23.67;;;13.60;;
16660;SDS011;8444;52.012;5.048;2023-03-09T11:54:24;25.73;;;13.77;;
16660;SDS011;8444;52.012;5.048;2023-03-09T11:56:51;23.33;;;13.73;;
16660;SDS011;8444;52.012;5.048;2023-03-09T11:59:18;21.40;;;13.20;;
16660;SDS011;8444;52.012;5.048;2023-03-09T12:01:45;22.43;;;13.87;;
16660;SDS011;8444;52.012;5.048;2023-03-09T12:04:14;20.23;;;12.87;;
16660;SDS011;8444;52.012;5.048;2023-03-09T12:09:17;23.30;;;13.53;;
16660;SDS011;8444;52.012;5.048;2023-03-09T12:11:47;23.90;;;14.37;;
16660;SDS011;8444;52.012;5.048;2023-03-09T12:16:44;21.37;;;12.47;;
16660;SDS011;8444;52.012;5.048;2023-03-09T12:19:13;22.73;;;13.03;;
16660;SDS011;8444;52.012;5.048;2023-03-09T12:22:22;27.03;;;13.70;;
16660;SDS011;8444;52.012;5.048;2023-03-09T12:24:32;24.50;;;13.93;;
16660;SDS011;8444;52.012;5.048;2023-03-09T12:27:00;21.70;;;12.17;;
16660;SDS011;8444;52.012;5.048;2023-03-09T12:29:29;24.13;;;14.23;;
16660;SDS011;8444;52.012;5.048;2023-03-09T12:34:40;24.13;;;13.37;;
16660;SDS011;8444;52.012;5.048;2023-03-09T12:39:56;21.50;;;11.77;;
16660;SDS011;8444;52.012;5.048;2023-03-09T12:42:27;22.13;;;12.60;;
16660;SDS011;8444;52.012;5.048;2023-03-09T12:47:25;23.93;;;14.20;;
16660;SDS011;8444;52.012;5.048;2023-03-09T12:49:58;21.20;;;13.77;;
16660;SDS011;8444;52.012;5.048;2023-03-09T12:54:56;25.67;;;13.57;;
16660;SDS011;8444;52.012;5.048;2023-03-09T12:57:21;26.97;;;14.53;;
16660;SDS011;8444;52.012;5.048;2023-03-09T12:59:46;26.37;;;14.57;;
16660;SDS011;8444;52.012;5.048;2023-03-09T13:07:32;22.37;;;12.83;;
16660;SDS011;8444;52.012;5.048;2023-03-09T13:09:57;24.93;;;13.50;;
16660;SDS011;8444;52.012;5.048;2023-03-09T13:12:29;26.37;;;13.70;;
16660;SDS011;8444;52.012;5.048;2023-03-09T13:19:56;26.53;;;13.60;;
16660;SDS011;8444;52.012;5.048;2023-03-09T13:22:37;20.50;;;11.63;;
16660;SDS011;8444;52.012;5.048;2023-03-09T13:25:14;24.10;;;12.03;;
16660;SDS011;8444;52.012;5.048;2023-03-09T13:27:43;24.67;;;13.50;;
16660;SDS011;8444;52.012;5.048;2023-03-09T13:32:40;21.47;;;11.93;;
16660;SDS011;8444;52.012;5.048;2023-03-09T13:35:16;20.70;;;11.97;;
16660;SDS011;8444;52.012;5.048;2023-03-09T13:37:41;22.10;;;12.27;;
16660;SDS011;8444;52.012;5.048;2023-03-09T13:42:37;20.20;;;10.87;;
16660;SDS011;8444;52.012;5.048;2023-03-09T13:45:03;23.90;;;12.87;;
16660;SDS011;8444;52.012;5.048;2023-03-09T13:47:29;23.30;;;13.17;;
16660;SDS011;8444;52.012;5.048;2023-03-09T13:49:56;21.83;;;11.80;;
16660;SDS011;8444;52.012;5.048;2023-03-09T13:52:23;24.47;;;12.77;;
16660;SDS011;8444;52.012;5.048;2023-03-09T13:54:50;23.67;;;13.27;;
16660;SDS011;8444;52.012;5.048;2023-03-09T13:57:30;24.03;;;12.27;;
16660;SDS011;8444;52.012;5.048;2023-03-09T13:59:57;20.10;;;12.00;;
16660;SDS011;8444;52.012;5.048;2023-03-09T14:02:24;20.90;;;12.00;;
16660;SDS011;8444;52.012;5.048;2023-03-09T14:04:50;21.10;;;11.73;;
16660;SDS011;8444;52.012;5.048;2023-03-09T14:07:20;22.87;;;11.70;;
16660;SDS011;8444;52.012;5.048;2023-03-09T14:09:50;17.83;;;11.03;;
16660;SDS011;8444;52.012;5.048;2023-03-09T14:12:17;20.67;;;10.60;;
16660;SDS011;8444;52.012;5.048;2023-03-09T14:14:47;24.57;;;12.70;;
16660;SDS011;8444;52.012;5.048;2023-03-09T14:17:21;21.90;;;11.87;;
16660;SDS011;8444;52.012;5.048;2023-03-09T14:19:49;22.07;;;12.03;;
16660;SDS011;8444;52.012;5.048;2023-03-09T14:22:16;20.30;;;11.27;;
16660;SDS011;8444;52.012;5.048;2023-03-09T14:24:42;24.43;;;12.13;;
16660;SDS011;8444;52.012;5.048;2023-03-09T14:27:50;22.93;;;12.57;;
16660;SDS011;8444;52.012;5.048;2023-03-09T14:29:56;19.80;;;11.77;;
16660;SDS011;8444;52.012;5.048;2023-03-09T14:32:28;21.20;;;11.90;;
16660;SDS011;8444;52.012;5.048;2023-03-09T14:34:57;20.70;;;11.63;;
16660;SDS011;8444;52.012;5.048;2023-03-09T14:37:30;17.90;;;10.53;;
16660;SDS011;8444;52.012;5.048;2023-03-09T14:39:56;18.50;;;10.67;;
16660;SDS011;8444;52.012;5.048;2023-03-09T14:42:26;18.57;;;10.87;;
16660;SDS011;8444;52.012;5.048;2023-03-09T14:47:35;20.40;;;10.93;;
16660;SDS011;8444;52.012;5.048;2023-03-09T14:50:00;17.60;;;10.00;;
16660;SDS011;8444;52.012;5.048;2023-03-09T14:52:27;17.57;;;10.83;;
16660;SDS011;8444;52.012;5.048;2023-03-09T14:54:53;15.00;;;8.63;;
16660;SDS011;8444;52.012;5.048;2023-03-09T14:57:18;16.60;;;9.57;;
16660;SDS011;8444;52.012;5.048;2023-03-09T14:59:44;17.97;;;9.57;;
16660;SDS011;8444;52.012;5.048;2023-03-09T15:02:10;16.53;;;9.90;;
16660;SDS011;8444;52.012;5.048;2023-03-09T15:04:36;18.77;;;9.57;;
16660;SDS011;8444;52.012;5.048;2023-03-09T15:07:02;16.93;;;10.07;;
16660;SDS011;8444;52.012;5.048;2023-03-09T15:09:32;17.23;;;9.67;;
16660;SDS011;8444;52.012;5.048;2023-03-09T15:11:59;18.03;;;10.17;;
16660;SDS011;8444;52.012;5.048;2023-03-09T15:14:35;17.43;;;10.03;;
16660;SDS011;8444;52.012;5.048;2023-03-09T15:17:02;16.17;;;9.87;;
16660;SDS011;8444;52.012;5.048;2023-03-09T15:19:28;18.47;;;9.87;;
16660;SDS011;8444;52.012;5.048;2023-03-09T15:21:54;17.83;;;10.77;;
16660;SDS011;8444;52.012;5.048;2023-03-09T15:24:20;19.07;;;9.50;;
16660;SDS011;8444;52.012;5.048;2023-03-09T15:26:45;17.93;;;10.30;;
16660;SDS011;8444;52.012;5.048;2023-03-09T15:29:10;17.03;;;10.70;;
16660;SDS011;8444;52.012;5.048;2023-03-09T15:31:36;17.43;;;10.33;;
16660;SDS011;8444;52.012;5.048;2023-03-09T15:34:01;17.57;;;9.67;;
16660;SDS011;8444;52.012;5.048;2023-03-09T15:36:26;15.93;;;9.07;;
16660;SDS011;8444;52.012;5.048;2023-03-09T15:38:51;16.23;;;10.10;;